createdAt,value
2017-09-21T00:00:30.960Z,-0.75
2017-09-21T00:01:30.944Z,-0.75
2017-09-21T00:02:30.926Z,-0.85
2017-09-21T00:03:30.910Z,-0.80
2017-09-21T00:04:30.892Z,-0.76
2017-09-21T00:05:30.875Z,-0.75
2017-09-21T00:06:30.898Z,-0.73
2017-09-21T00:07:30.843Z,-0.86
2017-09-21T00:08:30.831Z,-0.73
2017-09-21T00:09:30.809Z,-0.73
2017-09-21T00:10:30.792Z,-0.61
2017-09-21T00:11:30.775Z,-0.51
2017-09-21T00:12:30.757Z,-0.40
2017-09-21T00:13:30.740Z,-0.31
2017-09-21T00:14:30.725Z,-0.31
2017-09-21T00:15:30.708Z,-0.36
2017-09-21T00:16:30.690Z,-0.25
2017-09-21T00:17:30.674Z,-0.31
2017-09-21T00:18:30.657Z,-0.37
2017-09-21T00:19:30.640Z,-0.42
2017-09-21T00:20:30.623Z,-0.54
2017-09-21T00:21:30.613Z,-0.69
2017-09-21T00:22:30.589Z,-0.67
2017-09-21T00:23:30.572Z,-0.60
2017-09-21T00:24:30.554Z,-0.52
2017-09-21T00:25:30.538Z,-0.58
2017-09-21T00:26:30.521Z,-0.72
2017-09-21T00:27:30.508Z,-0.70
2017-09-21T00:28:30.487Z,-0.76
2017-09-21T00:29:30.470Z,-0.78
2017-09-21T00:30:30.453Z,-0.78
2017-09-21T00:31:30.436Z,-0.78
2017-09-21T00:32:30.418Z,-0.76
2017-09-21T00:33:30.400Z,-0.61
2017-09-21T00:34:30.383Z,-0.49
2017-09-21T00:35:30.367Z,-0.67
2017-09-21T00:36:30.350Z,-0.70
2017-09-21T00:37:30.331Z,-0.72
2017-09-21T00:38:30.317Z,-0.58
2017-09-21T00:39:30.299Z,-0.70
2017-09-21T00:40:30.282Z,-0.89
2017-09-21T00:41:30.265Z,-0.83
2017-09-21T00:42:30.247Z,-0.79
2017-09-21T00:43:30.230Z,-0.83
2017-09-21T00:44:30.213Z,-0.80
2017-09-21T00:45:30.197Z,-0.64
2017-09-21T00:46:30.179Z,-0.64
2017-09-21T00:47:30.164Z,-0.54
2017-09-21T00:48:30.146Z,-0.33
2017-09-21T00:49:30.130Z,-0.47
2017-09-21T00:50:30.113Z,-0.51
2017-09-21T00:51:30.097Z,-0.55
2017-09-21T00:52:30.082Z,-0.46
2017-09-21T00:53:30.062Z,-0.40
2017-09-21T00:54:30.046Z,-0.42
2017-09-21T00:55:30.028Z,-0.61
2017-09-21T00:56:30.011Z,-0.69
2017-09-21T00:57:29.994Z,-0.76
2017-09-21T00:58:29.976Z,-0.86
2017-09-21T00:59:29.960Z,-1.10
2017-09-21T01:00:29.941Z,-1.05
2017-09-21T01:01:29.925Z,-1.02
2017-09-21T01:02:29.908Z,-0.83
2017-09-21T01:03:29.891Z,-0.82
2017-09-21T01:04:29.873Z,-0.85
2017-09-21T01:05:29.856Z,-0.79
2017-09-21T01:06:29.839Z,-0.86
2017-09-21T01:07:29.822Z,-0.73
2017-09-21T01:08:29.804Z,-0.73
2017-09-21T01:09:29.787Z,-0.69
2017-09-21T01:10:29.770Z,-0.67
2017-09-21T01:11:29.752Z,-0.94
2017-09-21T01:12:29.737Z,-0.83
2017-09-21T01:13:29.719Z,-1.05
2017-09-21T01:14:29.702Z,-1.09
2017-09-21T01:15:29.685Z,-1.09
2017-09-21T01:16:29.667Z,-1.10
2017-09-21T01:17:29.650Z,-1.01
2017-09-21T01:18:29.633Z,-0.86
2017-09-21T01:19:29.620Z,-1.22
2017-09-21T01:20:29.599Z,-1.56
2017-09-21T01:21:29.585Z,-1.69
2017-09-21T01:22:29.566Z,-1.45
2017-09-21T01:23:29.548Z,-1.34
2017-09-21T01:24:29.531Z,-1.23
2017-09-21T01:25:29.516Z,-1.28
2017-09-21T01:26:29.499Z,-1.22
2017-09-21T01:27:29.480Z,-1.09
2017-09-21T01:28:29.460Z,-0.98
2017-09-21T01:29:29.445Z,-0.78
2017-09-21T01:30:29.427Z,-0.80
2017-09-21T01:31:29.410Z,-0.75
2017-09-21T01:32:29.393Z,-0.83
2017-09-21T01:33:29.376Z,-0.80
2017-09-21T01:34:29.358Z,-0.91
2017-09-21T01:35:29.341Z,-0.91
2017-09-21T01:36:29.324Z,-0.73
2017-09-21T01:37:29.306Z,-0.78
2017-09-21T01:38:29.289Z,-0.97
2017-09-21T01:39:29.274Z,-0.99
2017-09-21T01:40:29.255Z,-1.19
2017-09-21T01:41:29.239Z,-1.22
2017-09-21T01:42:29.223Z,-1.28
2017-09-21T01:43:29.206Z,-1.30
2017-09-21T01:44:29.188Z,-1.28
2017-09-21T01:45:29.171Z,-1.25
2017-09-21T01:46:29.156Z,-1.27
2017-09-21T01:47:29.138Z,-1.19
2017-09-21T01:48:29.120Z,-1.33
2017-09-21T01:49:29.104Z,-1.52
2017-09-21T01:50:29.087Z,-1.54
2017-09-21T01:51:29.071Z,-1.43
2017-09-21T01:52:29.053Z,-1.28
2017-09-21T01:53:29.039Z,-1.22
2017-09-21T01:54:29.018Z,-1.34
2017-09-21T01:55:29.002Z,-1.61
2017-09-21T01:56:28.984Z,-2.02
2017-09-21T01:57:28.969Z,-2.26
2017-09-21T01:58:28.950Z,-2.52
2017-09-21T01:59:28.935Z,-2.68
2017-09-21T02:00:28.916Z,-2.66
2017-09-21T02:01:28.902Z,-2.81
2017-09-21T02:02:28.882Z,-2.88
2017-09-21T02:03:28.864Z,-2.99
2017-09-21T02:04:28.845Z,-3.02
2017-09-21T02:05:28.828Z,-2.84
2017-09-21T02:06:28.810Z,-2.56
2017-09-21T02:07:28.793Z,-2.60
2017-09-21T02:08:28.775Z,-2.46
2017-09-21T02:09:28.757Z,-2.58
2017-09-21T02:10:28.739Z,-2.46
2017-09-21T02:11:28.722Z,-2.32
2017-09-21T02:12:28.740Z,-2.24
2017-09-21T02:13:28.684Z,-2.58
2017-09-21T02:14:28.667Z,-2.81
2017-09-21T02:15:28.654Z,-3.09
2017-09-21T02:16:28.632Z,-3.07
2017-09-21T02:17:28.613Z,-3.18
2017-09-21T02:18:28.597Z,-3.00
2017-09-21T02:19:28.581Z,-3.23
2017-09-21T02:20:28.560Z,-3.18
2017-09-21T02:21:28.542Z,-3.02
2017-09-21T02:22:28.524Z,-2.81
2017-09-21T02:23:28.515Z,-2.67
2017-09-21T02:24:28.489Z,-2.63
2017-09-21T02:25:28.474Z,-2.49
2017-09-21T02:26:28.464Z,-2.43
2017-09-21T02:27:28.436Z,-2.60
2017-09-21T02:28:28.416Z,-2.43
2017-09-21T02:29:28.400Z,-2.37
2017-09-21T02:30:28.381Z,-2.06
2017-09-21T02:31:28.364Z,-2.16
2017-09-21T02:32:28.344Z,-2.34
2017-09-21T02:33:28.326Z,-2.10
2017-09-21T02:34:28.310Z,-1.92
2017-09-21T02:35:28.292Z,-1.76
2017-09-21T02:36:28.272Z,-1.84
2017-09-21T02:37:28.256Z,-1.82
2017-09-21T02:38:28.237Z,-2.26
2017-09-21T02:39:28.220Z,-2.53
2017-09-21T02:40:28.202Z,-2.78
2017-09-21T02:41:28.184Z,-3.07
2017-09-21T02:42:28.166Z,-3.06
2017-09-21T02:43:28.150Z,-2.78
2017-09-21T02:44:28.131Z,-2.67
2017-09-21T02:45:28.113Z,-2.82
2017-09-21T02:46:28.095Z,-2.71
2017-09-21T02:47:28.079Z,-2.81
2017-09-21T02:48:28.061Z,-2.78
2017-09-21T02:49:28.044Z,-2.55
2017-09-21T02:50:28.024Z,-2.43
2017-09-21T02:51:28.005Z,-2.45
2017-09-21T02:52:27.988Z,-2.63
2017-09-21T02:53:27.971Z,-2.64
2017-09-21T02:54:27.954Z,-2.70
2017-09-21T02:55:27.936Z,-2.60
2017-09-21T02:56:27.917Z,-2.94
2017-09-21T02:57:27.900Z,-3.15
2017-09-21T02:58:27.882Z,-3.23
2017-09-21T02:59:27.864Z,-3.20
2017-09-21T03:00:27.845Z,-3.06
2017-09-21T03:01:27.832Z,-2.79
2017-09-21T03:02:27.810Z,-2.55
2017-09-21T03:03:27.791Z,-2.55
2017-09-21T03:04:27.773Z,-2.79
2017-09-21T03:05:27.753Z,-2.85
2017-09-21T03:06:27.737Z,-2.84
2017-09-21T03:07:27.718Z,-3.17
2017-09-21T03:08:27.699Z,-3.06
2017-09-21T03:09:27.681Z,-3.06
2017-09-21T03:10:27.663Z,-2.97
2017-09-21T03:11:27.644Z,-3.09
2017-09-21T03:12:27.624Z,-2.96
2017-09-21T03:13:27.605Z,-3.03
2017-09-21T03:14:27.587Z,-3.02
2017-09-21T03:15:27.569Z,-3.06
2017-09-21T03:16:27.550Z,-3.25
2017-09-21T03:17:27.532Z,-3.35
2017-09-21T03:18:27.513Z,-3.36
2017-09-21T03:19:27.495Z,-3.36
2017-09-21T03:20:27.474Z,-3.45
2017-09-21T03:21:27.456Z,-3.39
2017-09-21T03:22:27.436Z,-3.49
2017-09-21T03:23:27.418Z,-3.43
2017-09-21T03:24:27.434Z,-3.43
2017-09-21T03:25:27.381Z,-3.52
2017-09-21T03:26:27.361Z,-3.45
2017-09-21T03:27:27.340Z,-3.42
2017-09-21T03:28:27.322Z,-3.38
2017-09-21T03:29:27.302Z,-3.28
2017-09-21T03:30:27.284Z,-3.21
2017-09-21T03:31:27.265Z,-3.21
2017-09-21T03:32:27.245Z,-3.14
2017-09-21T03:33:27.226Z,-3.03
2017-09-21T03:34:27.207Z,-2.86
2017-09-21T03:35:27.185Z,-2.92
2017-09-21T03:36:27.167Z,-2.99
2017-09-21T03:37:27.148Z,-3.09
2017-09-21T03:38:27.130Z,-3.23
2017-09-21T03:39:27.111Z,-3.25
2017-09-21T03:40:27.091Z,-3.24
2017-09-21T03:41:27.072Z,-3.25
2017-09-21T03:42:27.054Z,-3.21
2017-09-21T03:43:27.035Z,-3.18
2017-09-21T03:44:27.016Z,-3.25
2017-09-21T03:45:26.996Z,-3.23
2017-09-21T03:46:26.977Z,-3.21
2017-09-21T03:47:26.958Z,-3.25
2017-09-21T03:48:26.939Z,-3.18
2017-09-21T03:49:26.920Z,-3.38
2017-09-21T03:50:26.902Z,-3.30
2017-09-21T03:51:26.890Z,-3.46
2017-09-21T03:52:26.863Z,-3.48
2017-09-21T03:53:26.844Z,-3.57
2017-09-21T03:54:26.824Z,-3.56
2017-09-21T03:55:26.810Z,-3.38
2017-09-21T03:56:26.788Z,-3.30
2017-09-21T03:57:26.769Z,-3.05
2017-09-21T03:58:26.751Z,-3.10
2017-09-21T03:59:26.733Z,-3.07
2017-09-21T04:00:26.714Z,-3.03
2017-09-21T04:01:26.694Z,-2.99
2017-09-21T04:02:26.675Z,-2.96
2017-09-21T04:03:26.658Z,-2.92
2017-09-21T04:04:26.636Z,-2.99
2017-09-21T04:05:26.618Z,-3.00
2017-09-21T04:06:26.600Z,-2.86
2017-09-21T04:07:26.581Z,-2.73
2017-09-21T04:08:26.563Z,-2.85
2017-09-21T04:09:26.544Z,-2.78
2017-09-21T04:10:26.526Z,-2.81
2017-09-21T04:11:26.509Z,-3.06
2017-09-21T04:12:26.489Z,-3.25
2017-09-21T04:13:26.470Z,-3.38
2017-09-21T04:14:26.452Z,-3.27
2017-09-21T04:15:26.434Z,-3.10
2017-09-21T04:16:26.415Z,-2.99
2017-09-21T04:17:26.396Z,-3.03
2017-09-21T04:18:26.378Z,-3.07
2017-09-21T04:19:26.360Z,-3.05
2017-09-21T04:20:26.341Z,-3.12
2017-09-21T04:21:26.324Z,-3.15
2017-09-21T04:22:26.307Z,-3.24
2017-09-21T04:23:26.288Z,-3.10
2017-09-21T04:24:26.269Z,-2.92
2017-09-21T04:25:26.251Z,-2.81
2017-09-21T04:26:26.233Z,-2.56
2017-09-21T04:27:26.216Z,-2.58
2017-09-21T04:28:26.197Z,-2.42
2017-09-21T04:29:26.179Z,-2.37
2017-09-21T04:30:26.161Z,-2.37
2017-09-21T04:31:26.143Z,-2.64
2017-09-21T04:32:26.124Z,-2.92
2017-09-21T04:33:26.106Z,-3.03
2017-09-21T04:34:26.088Z,-3.36
2017-09-21T04:35:26.070Z,-3.38
2017-09-21T04:36:26.051Z,-3.62
2017-09-21T04:37:26.034Z,-3.67
2017-09-21T04:38:26.016Z,-3.63
2017-09-21T04:39:25.998Z,-3.59
2017-09-21T04:40:25.983Z,-3.54
2017-09-21T04:41:25.962Z,-3.30
2017-09-21T04:42:25.944Z,-3.33
2017-09-21T04:43:25.928Z,-3.49
2017-09-21T04:44:25.906Z,-3.25
2017-09-21T04:45:25.889Z,-3.21
2017-09-21T04:46:25.875Z,-3.23
2017-09-21T04:47:25.852Z,-3.27
2017-09-21T04:48:25.834Z,-3.35
2017-09-21T04:49:25.816Z,-3.52
2017-09-21T04:50:25.799Z,-3.56
2017-09-21T04:51:25.780Z,-3.63
2017-09-21T04:52:25.761Z,-3.60
2017-09-21T04:53:25.745Z,-3.52
2017-09-21T04:54:25.726Z,-3.54
2017-09-21T04:55:25.709Z,-3.45
2017-09-21T04:56:25.689Z,-3.52
2017-09-21T04:57:25.703Z,-3.38
2017-09-21T04:58:25.655Z,-3.25
2017-09-21T04:59:25.634Z,-3.30
2017-09-21T05:00:25.615Z,-3.42
2017-09-21T05:01:25.599Z,-3.45
2017-09-21T05:02:25.588Z,-3.46
2017-09-21T05:03:25.564Z,-3.54
2017-09-21T05:04:25.543Z,-3.67
2017-09-21T05:05:25.526Z,-3.71
2017-09-21T05:06:25.510Z,-3.66
2017-09-21T05:07:25.489Z,-3.67
2017-09-21T05:08:25.470Z,-3.66
2017-09-21T05:09:25.453Z,-3.57
2017-09-21T05:10:25.434Z,-3.31
2017-09-21T05:11:25.416Z,-3.27
2017-09-21T05:12:25.400Z,-3.38
2017-09-21T05:13:25.379Z,-3.33
2017-09-21T05:14:25.361Z,-3.30
2017-09-21T05:15:25.343Z,-3.35
2017-09-21T05:16:25.324Z,-3.36
2017-09-21T05:17:25.306Z,-3.30
2017-09-21T05:18:25.288Z,-3.20
2017-09-21T05:19:25.270Z,-3.30
2017-09-21T05:20:25.252Z,-3.39
2017-09-21T05:21:25.234Z,-3.31
2017-09-21T05:22:25.215Z,-3.24
2017-09-21T05:23:25.198Z,-3.20
2017-09-21T05:24:25.179Z,-3.18
2017-09-21T05:25:25.161Z,-3.23
2017-09-21T05:26:25.144Z,-3.23
2017-09-21T05:27:25.126Z,-3.38
2017-09-21T05:28:25.107Z,-3.17
2017-09-21T05:29:25.089Z,-2.78
2017-09-21T05:30:25.071Z,-2.63
2017-09-21T05:31:25.057Z,-2.35
2017-09-21T05:32:25.040Z,-2.03
2017-09-21T05:33:25.017Z,-1.80
2017-09-21T05:34:24.999Z,-1.69
2017-09-21T05:35:24.983Z,-1.46
2017-09-21T05:36:24.964Z,-1.45
2017-09-21T05:37:24.950Z,-1.22
2017-09-21T05:38:24.928Z,-1.04
2017-09-21T05:39:24.911Z,-1.04
2017-09-21T05:40:24.892Z,-1.55
2017-09-21T05:41:24.876Z,-1.72
2017-09-21T05:42:24.858Z,-1.82
2017-09-21T05:43:24.840Z,-1.80
2017-09-21T05:44:24.822Z,-2.00
2017-09-21T05:45:24.806Z,-2.09
2017-09-21T05:46:24.789Z,-2.24
2017-09-21T05:47:24.770Z,-1.95
2017-09-21T05:48:24.752Z,-1.84
2017-09-21T05:49:24.736Z,-1.46
2017-09-21T05:50:24.719Z,-1.19
2017-09-21T05:51:24.701Z,-1.04
2017-09-21T05:52:24.684Z,-0.82
2017-09-21T05:53:24.669Z,-0.64
2017-09-21T05:54:24.651Z,-0.46
2017-09-21T05:55:24.634Z,-0.72
2017-09-21T05:56:24.617Z,-0.49
2017-09-21T05:57:24.599Z,-0.07
2017-09-21T05:58:24.585Z,0.13
2017-09-21T05:59:24.566Z,0.03
2017-09-21T06:00:24.549Z,0.17
2017-09-21T06:01:24.533Z,0.21
2017-09-21T06:02:24.516Z,0.39
2017-09-21T06:03:24.500Z,0.41
2017-09-21T06:04:24.482Z,0.44
2017-09-21T06:05:24.466Z,0.49
2017-09-21T06:06:24.451Z,0.76
2017-09-21T06:07:24.434Z,0.83
2017-09-21T06:08:24.417Z,0.96
2017-09-21T06:09:24.403Z,0.96
2017-09-21T06:10:24.384Z,0.86
2017-09-21T06:11:24.369Z,1.09
2017-09-21T06:12:24.351Z,1.12
2017-09-21T06:13:24.336Z,0.61
2017-09-21T06:14:24.321Z,0.28
2017-09-21T06:15:24.305Z,0.20
2017-09-21T06:16:24.287Z,0.17
2017-09-21T06:17:24.272Z,0.39
2017-09-21T06:18:24.258Z,0.73
2017-09-21T06:19:24.242Z,0.94
2017-09-21T06:20:24.227Z,0.88
2017-09-21T06:21:24.210Z,0.79
2017-09-21T06:22:24.195Z,0.86
2017-09-21T06:23:24.180Z,0.97
2017-09-21T06:24:24.165Z,1.05
2017-09-21T06:25:24.149Z,1.23
2017-09-21T06:26:24.137Z,0.51
2017-09-21T06:27:24.118Z,0.75
2017-09-21T06:28:24.101Z,0.97
2017-09-21T06:29:24.086Z,1.30
2017-09-21T06:30:24.071Z,1.59
2017-09-21T06:31:24.056Z,1.88
2017-09-21T06:32:24.040Z,2.10
2017-09-21T06:33:24.024Z,2.09
2017-09-21T06:34:24.010Z,2.36
2017-09-21T06:35:23.995Z,2.45
2017-09-21T06:36:23.980Z,2.54
2017-09-21T06:37:23.965Z,2.53
2017-09-21T06:38:23.951Z,2.48
2017-09-21T06:39:23.936Z,2.67
2017-09-21T06:40:23.920Z,2.78
2017-09-21T06:41:23.905Z,2.82
2017-09-21T06:42:23.890Z,2.81
2017-09-21T06:43:23.876Z,2.87
2017-09-21T06:44:23.859Z,3.00
2017-09-21T06:45:23.852Z,3.05
2017-09-21T06:46:23.831Z,3.23
2017-09-21T06:47:23.817Z,3.33
2017-09-21T06:48:23.802Z,3.50
2017-09-21T06:49:23.789Z,3.60
2017-09-21T06:50:23.775Z,3.57
2017-09-21T06:51:23.760Z,3.69
2017-09-21T06:52:23.745Z,3.98
2017-09-21T06:53:23.731Z,4.11
2017-09-21T06:54:23.717Z,4.37
2017-09-21T06:55:23.703Z,4.47
2017-09-21T06:56:23.689Z,4.42
2017-09-21T06:57:23.676Z,4.50
2017-09-21T06:58:23.661Z,4.27
2017-09-21T06:59:23.648Z,4.30
2017-09-21T07:00:23.633Z,4.09
2017-09-21T07:01:23.621Z,4.41
2017-09-21T07:02:23.608Z,4.42
2017-09-21T07:03:23.593Z,4.42
2017-09-21T07:04:23.579Z,4.44
2017-09-21T07:05:23.570Z,4.42
2017-09-21T07:06:23.552Z,4.50
2017-09-21T07:07:23.542Z,4.40
2017-09-21T07:08:23.525Z,4.65
2017-09-21T07:09:23.511Z,4.58
2017-09-21T07:10:23.498Z,4.42
2017-09-21T07:11:23.485Z,4.70
2017-09-21T07:12:23.470Z,5.09
2017-09-21T07:13:23.459Z,5.18
2017-09-21T07:14:23.444Z,4.58
2017-09-21T07:15:23.432Z,4.42
2017-09-21T07:16:23.417Z,4.55
2017-09-21T07:17:23.403Z,4.63
2017-09-21T07:18:23.390Z,4.75
2017-09-21T07:19:23.377Z,5.03
2017-09-21T07:20:51.044Z,5.06
2017-09-21T07:22:42.055Z,5.07
2017-09-21T07:22:42.453Z,4.84
2017-09-21T07:23:23.976Z,4.75
2017-09-21T07:24:23.322Z,4.99
2017-09-21T07:25:23.300Z,5.22
2017-09-21T07:26:23.285Z,5.12
2017-09-21T07:27:23.271Z,5.22
2017-09-21T07:28:23.271Z,5.10
2017-09-21T07:29:23.246Z,4.63
2017-09-21T07:30:23.232Z,4.89
2017-09-21T07:31:23.220Z,4.94
2017-09-21T07:32:23.209Z,5.00
2017-09-21T07:33:23.192Z,5.27
2017-09-21T07:34:23.197Z,5.56
2017-09-21T07:35:23.168Z,5.76
2017-09-21T07:36:23.154Z,5.74
2017-09-21T07:37:23.156Z,5.53
2017-09-21T07:38:23.129Z,5.68
2017-09-21T07:39:23.118Z,5.60
2017-09-21T07:40:23.103Z,5.57
2017-09-21T07:41:23.090Z,5.42
2017-09-21T07:42:23.077Z,5.27
2017-09-21T07:43:23.066Z,5.24
2017-09-21T07:44:23.051Z,5.24
2017-09-21T07:45:23.039Z,5.21
2017-09-21T07:46:23.026Z,5.21
2017-09-21T07:47:23.012Z,5.43
2017-09-21T07:48:24.254Z,5.48
2017-09-21T07:49:37.443Z,5.43
2017-09-21T07:50:22.975Z,5.25
2017-09-21T07:51:22.964Z,5.07
2017-09-21T07:52:22.950Z,5.09
2017-09-21T07:53:22.938Z,4.97
2017-09-21T07:54:22.925Z,5.56
2017-09-21T07:55:22.913Z,5.85
2017-09-21T07:56:22.901Z,5.86
2017-09-21T07:57:22.889Z,6.21
2017-09-21T07:58:22.876Z,6.14
2017-09-21T07:59:22.864Z,6.44
2017-09-21T08:00:22.852Z,6.73
2017-09-21T08:01:22.841Z,6.94
2017-09-21T08:02:22.830Z,7.03
2017-09-21T08:03:22.817Z,6.77
2017-09-21T08:04:22.806Z,6.81
2017-09-21T08:05:22.797Z,6.64
2017-09-21T08:06:22.782Z,6.31
2017-09-21T08:07:22.772Z,6.30
2017-09-21T08:08:22.759Z,6.18
2017-09-21T08:09:22.748Z,6.33
2017-09-21T08:10:22.736Z,6.33
2017-09-21T08:11:22.726Z,5.96
2017-09-21T08:12:22.712Z,5.46
2017-09-21T08:13:22.701Z,5.53
2017-09-21T08:14:22.689Z,5.48
2017-09-21T08:15:22.686Z,5.51
2017-09-21T08:16:22.668Z,5.45
2017-09-21T08:17:22.655Z,5.91
2017-09-21T08:18:22.644Z,6.09
2017-09-21T08:19:22.632Z,5.85
2017-09-21T08:20:22.619Z,5.74
2017-09-21T08:21:22.606Z,6.36
2017-09-21T08:22:22.595Z,6.40
2017-09-21T08:23:22.583Z,6.80
2017-09-21T08:24:22.571Z,6.41
2017-09-21T08:25:22.559Z,6.56
2017-09-21T08:26:22.548Z,6.81
2017-09-21T08:27:22.536Z,7.06
2017-09-21T08:28:22.522Z,7.40
2017-09-21T08:29:22.513Z,7.10
2017-09-21T08:30:22.500Z,6.81
2017-09-21T08:31:22.489Z,6.97
2017-09-21T08:32:22.476Z,6.81
2017-09-21T08:33:22.469Z,6.88
2017-09-21T08:34:22.455Z,6.94
2017-09-21T08:35:22.442Z,6.89
2017-09-21T08:36:22.430Z,6.51
2017-09-21T08:37:22.419Z,6.61
2017-09-21T08:38:22.406Z,6.84
2017-09-21T08:39:22.397Z,7.03
2017-09-21T08:40:22.384Z,7.16
2017-09-21T08:41:22.372Z,7.28
2017-09-21T08:42:22.360Z,7.06
2017-09-21T08:43:22.357Z,7.25
2017-09-21T08:44:22.336Z,7.53
2017-09-21T08:45:22.325Z,7.68
2017-09-21T08:46:22.316Z,7.80
2017-09-21T08:47:22.306Z,7.83
2017-09-21T08:48:22.292Z,7.68
2017-09-21T08:49:22.283Z,7.10
2017-09-21T08:50:22.273Z,6.69
2017-09-21T08:51:22.264Z,6.59
2017-09-21T08:52:22.254Z,6.48
2017-09-21T08:53:22.239Z,6.49
2017-09-21T08:54:22.229Z,6.56
2017-09-21T08:55:22.217Z,6.94
2017-09-21T08:56:22.205Z,7.02
2017-09-21T08:57:22.195Z,7.09
2017-09-21T08:58:22.184Z,7.53
2017-09-21T08:59:22.177Z,7.48
2017-09-21T09:00:22.161Z,8.00
2017-09-21T09:01:22.150Z,8.08
2017-09-21T09:02:22.139Z,7.67
2017-09-21T09:03:22.128Z,7.69
2017-09-21T09:04:22.116Z,8.00
2017-09-21T09:05:22.105Z,8.40
2017-09-21T09:06:22.094Z,8.53
2017-09-21T09:07:22.086Z,8.95
2017-09-21T09:08:22.074Z,8.77
2017-09-21T09:09:22.062Z,8.68
2017-09-21T09:10:22.051Z,8.86
2017-09-21T09:11:22.046Z,9.17
2017-09-21T09:12:22.029Z,8.22
2017-09-21T09:13:22.019Z,8.36
2017-09-21T09:14:22.014Z,8.01
2017-09-21T09:15:21.997Z,8.38
2017-09-21T09:16:21.986Z,8.66
2017-09-21T09:17:21.976Z,8.34
2017-09-21T09:18:21.966Z,8.74
2017-09-21T09:19:21.989Z,8.62
2017-09-21T09:20:21.944Z,8.08
2017-09-21T09:21:21.934Z,8.37
2017-09-21T09:22:21.923Z,8.83
2017-09-21T09:23:21.914Z,8.70
2017-09-21T09:24:21.902Z,8.96
2017-09-21T09:25:21.893Z,8.79
2017-09-21T09:26:21.881Z,8.47
2017-09-21T09:27:21.871Z,8.43
2017-09-21T09:28:21.864Z,8.05
2017-09-21T09:29:21.849Z,7.95
2017-09-21T09:30:21.839Z,8.02
2017-09-21T09:31:21.829Z,7.93
2017-09-21T09:32:21.818Z,7.85
2017-09-21T09:33:21.806Z,7.85
2017-09-21T09:34:21.798Z,7.87
2017-09-21T09:35:21.788Z,8.01
2017-09-21T09:36:21.779Z,8.15
2017-09-21T09:37:21.765Z,8.05
2017-09-21T09:38:21.756Z,8.73
2017-09-21T09:39:21.744Z,9.18
2017-09-21T09:40:21.734Z,9.36
2017-09-21T09:41:21.723Z,9.78
2017-09-21T09:42:21.713Z,9.97
2017-09-21T09:43:21.704Z,9.84
2017-09-21T09:44:21.693Z,9.99
2017-09-21T09:45:21.684Z,10.09
2017-09-21T09:46:21.674Z,10.47
2017-09-21T09:47:21.665Z,10.04
2017-09-21T09:48:21.654Z,10.12
2017-09-21T09:49:21.645Z,10.02
2017-09-21T09:50:21.635Z,10.04
2017-09-21T09:51:21.626Z,9.96
2017-09-21T09:52:21.616Z,9.64
2017-09-21T09:53:21.607Z,8.79
2017-09-21T09:54:21.595Z,8.50
2017-09-21T09:55:21.592Z,8.12
2017-09-21T09:56:21.575Z,8.66
2017-09-21T09:57:21.566Z,9.05
2017-09-21T09:58:21.559Z,9.33
2017-09-21T09:59:21.547Z,9.71
2017-09-21T10:00:21.535Z,9.39
2017-09-21T10:01:21.525Z,9.72
2017-09-21T10:02:21.516Z,9.11
2017-09-21T10:03:21.507Z,9.20
2017-09-21T10:04:21.496Z,9.57
2017-09-21T10:05:21.486Z,9.96
2017-09-21T10:06:21.476Z,10.22
2017-09-21T10:07:21.470Z,10.20
2017-09-21T10:08:21.456Z,10.42
2017-09-21T10:09:21.447Z,10.44
2017-09-21T10:10:21.437Z,10.45
2017-09-21T10:11:21.428Z,9.68
2017-09-21T10:12:21.417Z,9.33
2017-09-21T10:13:21.408Z,8.98
2017-09-21T10:14:21.399Z,8.95
2017-09-21T10:15:21.390Z,8.70
2017-09-21T10:16:21.379Z,8.02
2017-09-21T10:17:21.369Z,8.05
2017-09-21T10:18:21.360Z,8.34
2017-09-21T10:19:21.351Z,9.01
2017-09-21T10:20:21.340Z,9.47
2017-09-21T10:21:21.331Z,9.78
2017-09-21T10:22:21.334Z,10.04
2017-09-21T10:23:21.313Z,10.11
2017-09-21T10:24:21.302Z,9.99
2017-09-21T10:25:21.299Z,9.01
2017-09-21T10:26:21.283Z,8.28
2017-09-21T10:27:21.274Z,7.87
2017-09-21T10:28:21.263Z,7.85
2017-09-21T10:29:21.254Z,8.50
2017-09-21T10:30:21.245Z,9.14
2017-09-21T10:31:21.235Z,9.38
2017-09-21T10:32:21.224Z,9.23
2017-09-21T10:33:21.215Z,9.39
2017-09-21T10:34:21.207Z,9.61
2017-09-21T10:35:21.197Z,9.32
2017-09-21T10:36:21.186Z,9.94
2017-09-21T10:37:21.176Z,9.97
2017-09-21T10:38:21.167Z,9.99
2017-09-21T10:39:21.157Z,10.01
2017-09-21T10:40:21.147Z,9.17
2017-09-21T10:41:21.137Z,8.98
2017-09-21T10:42:21.128Z,9.17
2017-09-21T10:43:21.119Z,9.43
2017-09-21T10:44:21.106Z,9.97
2017-09-21T10:45:21.098Z,10.22
2017-09-21T10:46:21.088Z,10.52
2017-09-21T10:47:21.077Z,11.07
2017-09-21T10:48:21.069Z,11.57
2017-09-21T10:49:21.058Z,11.86
2017-09-21T10:50:21.051Z,11.69
2017-09-21T10:51:21.041Z,11.86
2017-09-21T10:52:21.031Z,12.17
2017-09-21T10:53:21.022Z,12.38
2017-09-21T10:54:21.017Z,12.52
2017-09-21T10:55:21.006Z,12.68
2017-09-21T10:56:20.997Z,13.11
2017-09-21T10:57:20.989Z,12.97
2017-09-21T10:58:20.980Z,13.23
2017-09-21T10:59:20.972Z,12.37
2017-09-21T11:00:20.964Z,11.85
2017-09-21T11:01:20.957Z,12.20
2017-09-21T11:02:20.988Z,12.70
2017-09-21T11:03:20.941Z,12.97
2017-09-21T11:04:20.931Z,12.95
2017-09-21T11:05:20.924Z,12.96
2017-09-21T11:06:20.916Z,13.08
2017-09-21T11:07:20.908Z,13.12
2017-09-21T11:08:20.900Z,12.90
2017-09-21T11:09:20.892Z,12.97
2017-09-21T11:10:20.884Z,13.12
2017-09-21T11:11:20.877Z,12.85
2017-09-21T11:12:20.867Z,11.82
2017-09-21T11:13:20.860Z,12.19
2017-09-21T11:14:20.852Z,12.21
2017-09-21T11:15:20.843Z,11.86
2017-09-21T11:16:20.835Z,12.31
2017-09-21T11:17:20.827Z,12.54
2017-09-21T11:18:20.819Z,12.68
2017-09-21T11:19:20.811Z,12.54
2017-09-21T11:20:20.802Z,12.57
2017-09-21T11:21:20.798Z,12.37
2017-09-21T11:22:20.786Z,12.34
2017-09-21T11:23:20.778Z,12.39
2017-09-21T11:24:20.768Z,12.07
2017-09-21T11:25:20.766Z,12.16
2017-09-21T11:26:20.789Z,11.64
2017-09-21T11:27:20.746Z,10.89
2017-09-21T11:28:20.736Z,9.91
2017-09-21T11:29:20.734Z,9.40
2017-09-21T11:30:20.720Z,9.05
2017-09-21T11:31:20.712Z,9.35
2017-09-21T11:32:20.727Z,9.54
2017-09-21T11:33:20.695Z,9.39
2017-09-21T11:34:20.686Z,9.17
2017-09-21T11:35:20.677Z,9.47
2017-09-21T11:36:20.673Z,10.02
2017-09-21T11:37:20.660Z,9.53
2017-09-21T11:38:20.652Z,9.40
2017-09-21T11:39:20.642Z,8.53
2017-09-21T11:40:20.633Z,8.00
2017-09-21T11:41:20.624Z,7.10
2017-09-21T11:42:20.617Z,6.91
2017-09-21T11:43:20.607Z,7.03
2017-09-21T11:44:20.597Z,7.43
2017-09-21T11:45:20.590Z,7.82
2017-09-21T11:46:20.579Z,7.53
2017-09-21T11:47:20.571Z,7.48
2017-09-21T11:48:20.561Z,7.60
2017-09-21T11:49:20.552Z,8.34
2017-09-21T11:50:20.543Z,9.05
2017-09-21T11:51:20.534Z,9.90
2017-09-21T11:52:20.524Z,10.60
2017-09-21T11:53:20.515Z,11.19
2017-09-21T11:54:20.506Z,11.60
2017-09-21T11:55:20.496Z,12.16
2017-09-21T11:56:20.487Z,12.45
2017-09-21T11:57:20.481Z,12.21
2017-09-21T11:58:20.470Z,11.94
2017-09-21T11:59:20.467Z,11.61
2017-09-21T12:00:20.452Z,11.54
2017-09-21T12:01:20.444Z,11.73
2017-09-21T12:02:20.436Z,11.99
2017-09-21T12:03:20.429Z,12.23
2017-09-21T12:04:20.421Z,11.88
2017-09-21T12:05:20.410Z,11.57
2017-09-21T12:06:20.403Z,11.51
2017-09-21T12:07:20.434Z,11.58
2017-09-21T12:08:20.385Z,11.18
2017-09-21T12:09:20.377Z,11.06
2017-09-21T12:10:20.367Z,10.44
2017-09-21T12:11:20.359Z,10.41
2017-09-21T12:12:20.350Z,10.60
2017-09-21T12:13:20.341Z,10.78
2017-09-21T12:14:20.333Z,10.53
2017-09-21T12:15:20.323Z,10.15
2017-09-21T12:16:20.315Z,9.36
2017-09-21T12:17:20.309Z,9.01
2017-09-21T12:18:20.296Z,9.13
2017-09-21T12:19:20.289Z,9.53
2017-09-21T12:20:20.279Z,9.75
2017-09-21T12:21:20.270Z,10.22
2017-09-21T12:22:20.261Z,9.21
2017-09-21T12:23:20.252Z,8.16
2017-09-21T12:24:20.242Z,7.28
2017-09-21T12:25:20.234Z,6.84
2017-09-21T12:26:20.225Z,6.58
2017-09-21T12:27:20.215Z,6.91
2017-09-21T12:28:20.205Z,6.64
2017-09-21T12:29:20.195Z,6.37
2017-09-21T12:30:20.187Z,6.08
2017-09-21T12:31:20.177Z,5.96
2017-09-21T12:32:20.166Z,5.99
2017-09-21T12:33:20.154Z,5.90
2017-09-21T12:34:20.145Z,5.67
2017-09-21T12:35:20.134Z,5.12
2017-09-21T12:36:20.124Z,5.04
2017-09-21T12:37:20.113Z,5.30
2017-09-21T12:38:20.103Z,4.89
2017-09-21T12:39:20.093Z,4.42
2017-09-21T12:40:20.080Z,4.24
2017-09-21T12:41:20.069Z,4.58
2017-09-21T12:42:20.058Z,4.45
2017-09-21T12:43:20.046Z,4.54
2017-09-21T12:44:20.034Z,4.70
2017-09-21T12:45:20.022Z,5.12
2017-09-21T12:46:20.010Z,5.42
2017-09-21T12:47:19.999Z,5.46
2017-09-21T12:48:19.987Z,5.40
2017-09-21T12:49:19.980Z,5.30
2017-09-21T12:50:19.963Z,5.39
2017-09-21T12:51:19.951Z,5.36
2017-09-21T12:52:19.939Z,5.42
2017-09-21T12:53:19.929Z,5.51
2017-09-21T12:54:19.915Z,4.97
2017-09-21T12:55:19.903Z,4.54
2017-09-21T12:56:19.894Z,4.36
2017-09-21T12:57:19.881Z,4.70
2017-09-21T12:58:19.866Z,4.63
2017-09-21T12:59:19.855Z,4.60
2017-09-21T13:00:19.841Z,4.96
2017-09-21T13:01:19.829Z,4.99
2017-09-21T13:02:19.819Z,5.00
2017-09-21T13:03:19.808Z,5.54